• Join FlightAware (Why Join?)
  • Login
  • US Flag 
10:07AM EST


 

Airport Tracker/Info


-or-


 

Live Flight TrackerFlight Track Log ✈ XOJ547 ✈ 20-Jun-2013 ✈ KAUS - KGSO

Flight Track Log - Related Links

Times and Time Zones

All times are in EDT time to prevent confusion due to time zone crossing. See the XOJ547 flight status page for this flight to view local times or setup timezone preferences in your user account.

Time Position Orientation Groundspeed Altitude Reporting Facility
EDT Latitude Longitude Course Direction KTS MPH feet Rate Location/Type
06:26PM 30.1083 -97.6064 90° East 221 254 6,600  Level Houston Center
06:27PM 30.1292 -97.5228 74° East 262 302 9,700 3,240 Climbing Houston Center
06:28PM 30.1753 -97.4381 58° Northeast 300 345 13,400 3,540 Climbing Houston Center
06:29PM 30.2181 -97.3494 61° Northeast 314 361 17,100 3,000 Climbing Houston Center
06:30PM 30.2636 -97.2597 60° Northeast 320 368 19,700 2,460 Climbing Houston Center
06:31PM 30.3333 -96.9344 90° East  Level FlightAware Approximate
06:31PM 30.3122 -97.1614 60° Northeast 339 390 22,200  Level Houston Center
06:32PM 30.3333 -96.7932 90° East  Level FlightAware Approximate
06:32PM 30.3467 -97.0247 74° East 389 448 24,300  Level Houston Center
06:33PM 30.3400 -96.8950 93° East 401 461 26,600 2,220 Climbing Houston Center
06:35PM 30.3325 -96.7642 94° East 406 467 29,000 2,160 Climbing Houston Center
06:36PM 30.3242 -96.6328 94° East 406 467 31,100 1,860 Climbing Houston Center
06:37PM 30.3156 -96.4972 94° East 415 478 32,900 1,500 Climbing Houston Center
06:38PM 30.3069 -96.3567 94° East 428 493 34,300 1,380 Climbing Houston Center
06:39PM 30.2947 -96.1842 95° East 452 520 35,800 1,320 Climbing Houston Center
06:40PM 30.3183 -96.0281 80° East 471 542 37,100 1,260 Climbing Houston Center
06:41PM 30.3947 -95.9017 55° Northeast 477 549 38,500 1,320 Climbing Houston Center
06:42PM 30.4747 -95.7783 53° Northeast 473 544 39,900 1,140 Climbing Houston Center
06:43PM 30.5533 -95.6589 53° Northeast 470 541 40,900 480 Climbing Houston Center
06:44PM 30.6336 -95.5369 53° Northeast 471 542 41,000  Climbing Houston Center
06:45PM 30.7094 -95.4172 54° Northeast 471 542 41,000  Level Houston Center
06:46PM 30.8069 -95.2708 52° Northeast 477 549 41,000  Level Houston Center
06:47PM 30.8869 -95.1458 53° Northeast 477 549 41,000  Level Houston Center
06:48PM 30.9678 -95.0214 53° Northeast 481 554 41,000  Level Houston Center
06:49PM 31.0458 -94.8983 53° Northeast 462 532 41,000  Level Houston Center
06:50PM 31.1197 -94.7753 55° Northeast 456 525 41,000  Level Houston Center
06:51PM 31.1992 -94.6283 58° Northeast 484 557 41,000  Level Houston Center
06:52PM 31.2600 -94.4758 65° Northeast 478 550 41,000  Level Houston Center
06:53PM 31.3178 -94.3372 64° Northeast 479 551 41,000  Level Houston Center
06:54PM 31.3753 -94.1961 64° Northeast 483 556 41,000  Level Houston Center
06:55PM 31.4325 -94.0533 65° Northeast 485 558 41,000  Level Houston Center
06:56PM 31.4767 -93.9383 66° East 486 559 41,000  Level Houston Center
06:57PM 31.5281 -93.7906 68° East 490 564 41,000  Level Houston Center
06:58PM 31.5792 -93.6425 68° East 491 565 41,000  Level Houston Center
06:59PM 31.6328 -93.4872 68° East 486 559 41,000  Level Houston Center
07:00PM 31.6839 -93.3389 68° East 489 563 41,000  Level Houston Center
07:01PM 31.7392 -93.1775 68° East 493 567 41,000  Level Houston Center
07:02PM 31.7900 -93.0267 68° East 495 570 41,000  Level Houston Center
07:03PM 31.8406 -92.8769 68° East 495 570 41,000  Level Houston Center
07:05PM 31.9119 -92.6656 68° East 496 571 41,000  Level Houston Center
07:06PM 31.9617 -92.5150 69° East 494 568 41,000  Level Houston Center
07:07PM 32.0119 -92.3639 69° East 496 571 41,000  Level Houston Center
07:08PM 32.0722 -92.1831 68° East 494 568 41,000  Level Houston Center
07:09PM 32.1219 -92.0322 69° East 494 568 41,000  Level Houston Center
07:10PM 32.1672 -91.8856 70° East 494 568 41,000  Level Houston Center
07:11PM 32.2167 -91.7358 69° East 491 565 41,000  Level Houston Center
07:12PM 32.2742 -91.5569 69° East 487 560 41,000  Level Houston Center
07:13PM 32.3231 -91.4056 69° East 490 564 41,000  Level Houston Center
07:14PM 32.3711 -91.2569 69° East 487 560 41,000  Level Houston Center
07:15PM 32.4181 -91.1064 70° East 488 562 41,000  Level Houston Center
07:16PM 32.4661 -90.9558 69° East 489 563 41,000  Level Houston Center
07:17PM 32.5144 -90.8053 69° East 489 563 41,000  Level Houston Center
07:18PM 32.5697 -90.6292 70° East 490 564 41,000  Level Houston Center
07:19PM 32.6167 -90.4778 70° East 489 563 41,000  Level Houston Center
07:20PM 32.6642 -90.3258 70° East 491 565 41,000  Level Houston Center
07:21PM 32.7114 -90.1742 70° East 490 564 41,000  Level Houston Center
07:22PM 32.7569 -90.0281 70° East 492 566 41,000  Level Houston Center
07:23PM 32.8044 -89.8556 72° East 486 559 41,000  Level Memphis Center
07:24PM 32.8497 -89.6944 71° East 500 575 41,000  Level Memphis Center
07:25PM 32.9031 -89.5458 67° East 500 575 41,000  Level Memphis Center
07:26PM 32.9500 -89.3942 70° East 489 563 41,000  Level Memphis Center
07:27PM 32.9947 -89.2403 71° East 489 563 41,000  Level Memphis Center
07:28PM 33.0392 -89.1033 69° East 489 563 41,000  Level Memphis Center
07:29PM 33.0836 -88.9514 71° East 489 563 41,000  Level Memphis Center
07:30PM 33.1297 -88.7944 71° East 489 563 41,000  Level Memphis Center
07:31PM 33.1756 -88.6422 70° East 489 563 41,000  Level Memphis Center
07:32PM 33.2194 -88.4875 71° East 489 563 41,000  Level Memphis Center
07:33PM 33.2650 -88.3325 71° East 489 563 41,000  Level Memphis Center
07:35PM 33.3642 -87.9711 72° East 497 572 41,000  Level Atlanta Center
07:36PM 33.4086 -87.8139 71° East 497 572 41,000  Level Atlanta Center
07:37PM 33.4550 -87.6589 70° East 492 566 41,000  Level Atlanta Center
07:38PM 33.4972 -87.5014 72° East 492 566 41,000  Level Atlanta Center
07:39PM 33.5411 -87.3436 72° East 497 572 41,000  Level Atlanta Center
07:40PM 33.5850 -87.1856 72° East 497 572 41,000  Level Atlanta Center
07:41PM 33.6286 -87.0300 71° East 497 572 41,000  Level Atlanta Center
07:42PM 33.6761 -86.8719 70° East 497 572 41,000  Level Atlanta Center
07:43PM 33.7192 -86.7161 72° East 492 566 41,000  Level Atlanta Center
07:44PM 33.7622 -86.5600 72° East 492 566 41,000  Level Atlanta Center
07:45PM 33.8092 -86.4014 70° East 497 572 41,000  Level Atlanta Center
07:46PM 33.8539 -86.2425 71° East 497 572 41,000  Level Atlanta Center
07:47PM 33.8983 -86.0861 71° East 497 572 41,000  Level Atlanta Center
07:48PM 33.9406 -85.9292 72° East 497 572 41,000  Level Atlanta Center
07:49PM 33.9842 -85.7975 68° East 490 564 41,000  Level Atlanta Center
07:50PM 34.0261 -85.6378 72° East 484 557 41,000  Level Atlanta Center
07:51PM 34.0675 -85.4858 72° East 484 557 41,000  Level Atlanta Center
07:52PM 34.1131 -85.3258 71° East 484 557 41,000  Level Atlanta Center
07:53PM 34.1586 -85.1483 73° East 484 557 41,000  Level Atlanta Center
07:54PM 34.2039 -84.9933 71° East 489 563 41,000  Level Atlanta Center
07:55PM 34.2489 -84.8356 71° East 489 563 41,000 -240 Level Atlanta Center
07:56PM 34.2936 -84.6750 71° East 497 572 40,600 -600 Descending Atlanta Center
07:57PM 34.3403 -84.5142 71° East 497 572 39,800 -840 Descending Atlanta Center
07:58PM 34.3844 -84.3558 71° East 500 575 39,000 -780 Descending Atlanta Center
07:59PM 34.4244 -84.2125 71° East 500 575 38,300 -780 Descending Atlanta Center
08:00PM 34.4683 -84.0514 72° East 500 575 37,500 -840 Descending Atlanta Center
08:01PM 34.5100 -83.8900 73° East 506 582 36,700 -840 Descending Atlanta Center
08:02PM 34.5556 -83.7236 72° East 509 586 35,900 -840 Descending Atlanta Center
08:03PM 34.5989 -83.5619 72° East 509 586 35,100 -900 Descending Atlanta Center
08:04PM 34.6481 -83.3797 72° East 509 586 34,200 -600 Descending Atlanta Center
08:05PM 34.6911 -83.2128 73° East 503 579 34,000 -420 Descending Atlanta Center
08:06PM 34.7378 -83.0481 71° East 518 596 33,400 -660 Descending Atlanta Center
08:07PM 34.7783 -82.9033 71° East 511 588 32,700 -900 Descending Atlanta Center
08:08PM 34.8267 -82.7458 69° East 498 573 31,600 -1,860 Descending Atlanta Center
08:09PM 34.8961 -82.5928 61° Northeast 498 573 29,000 -2,700 Descending Atlanta Center
08:10PM 34.9653 -82.4497 59° Northeast 493 567 26,300 -1,980 Descending Atlanta Center
08:11PM 35.0281 -82.3189 60° Northeast 473 544 25,100 -1,200 Descending Atlanta Center
08:12PM 35.0908 -82.1883 60° Northeast 449 517 24,000 -600 Descending Atlanta Center
08:13PM 35.1514 -82.0575 60° Northeast 436 502 24,000  Level Atlanta Center
08:14PM 35.2139 -81.9211 61° Northeast 450 518 24,000 -60 Level Atlanta Center
08:15PM 35.2822 -81.7769 60° Northeast 450 518 23,900 -420 Descending Atlanta Center
08:16PM 35.3636 -81.6653 48° Northeast 434 499 23,200 -900 Descending Atlanta Center
08:17PM 35.4644 -81.5908 31° Northeast 428 493 22,200 -1,080 Descending Atlanta Center
08:18PM 35.5564 -81.5039 38° Northeast 418 481 21,100 -1,140 Descending Atlanta Center
08:19PM 35.6294 -81.4019 49° Northeast 403 464 20,000 -1,020 Descending Atlanta Center
08:20PM 35.6964 -81.3128 47° Northeast 393 452 19,100 -540 Descending Atlanta Center
08:21PM 35.7669 -81.2081 50° Northeast 393 452 19,000 -240 Descending Atlanta Center
08:22PM 35.8375 -81.1083 49° Northeast 393 452 18,700 -840 Descending Atlanta Center
08:23PM 35.9103 -81.0058 49° Northeast 388 447 17,400 -1,620 Descending Atlanta Center
08:24PM 35.9847 -80.9003 49° Northeast 382 440 15,500 -1,980 Descending Atlanta Center
08:25PM 36.0511 -80.8078 48° Northeast 365 420 13,500 -1,980 Descending Atlanta Center
08:26PM 36.1133 -80.7181 49° Northeast 360 414 11,600 -1,260 Descending Atlanta Center
08:27PM 36.1247 -80.5992 83° East 331 381 11,000 -660 Descending Atlanta Center
08:28PM 36.1092 -80.4894 100° East 314 361 10,300 -1,320 Descending Atlanta Center
08:29PM 36.0958 -80.3950 100° East 298 343 8,400 -2,040 Descending Atlanta Center
08:30PM 36.0872 -80.3081 97° East 287 330 6,300 -2,160 Descending Atlanta Center
08:31PM 36.0739 -80.2161 100° East 277 319 4,100 -1,680 Descending Atlanta Center
08:32PM 36.0647 -80.1292 97° East 266 306 3,000 -1,140 Descending Atlanta Center
08:34PM 36.0486 -79.9514 39° Northeast  Level FlightAware Approximate
08:41PM 36.1000 -79.9333 15° North  Level FlightAware Approximate
08:42PM 36.1013 -79.9411 15° North  Level Estimated
08:43PM 36.1000 -79.9333 15° North  Level FlightAware Approximate
08:44PM 36.1013 -79.9411 15° North  Level Estimated